createdAt,value
2022-09-06T00:01:18.037Z,17.20
2022-09-06T00:03:46.988Z,17.20
2022-09-06T00:06:19.165Z,17.20
2022-09-06T00:08:49.635Z,17.20
2022-09-06T00:11:18.738Z,17.20
2022-09-06T00:13:47.997Z,17.18
2022-09-06T00:16:27.272Z,17.14
2022-09-06T00:18:58.520Z,17.14
2022-09-06T00:21:31.162Z,17.10
2022-09-06T00:24:00.097Z,17.10
2022-09-06T00:26:28.779Z,17.10
2022-09-06T00:28:57.364Z,17.10
2022-09-06T00:31:27.520Z,17.00
2022-09-06T00:33:56.273Z,17.00
2022-09-06T00:36:24.961Z,17.00
2022-09-06T00:38:53.748Z,17.00
2022-09-06T00:41:22.436Z,17.00
2022-09-06T00:43:51.022Z,16.96
2022-09-06T00:46:27.202Z,16.90
2022-09-06T00:49:10.205Z,16.90
2022-09-06T00:51:40.633Z,16.90
2022-09-06T00:54:10.517Z,16.80
2022-09-06T00:56:43.643Z,16.80
2022-09-06T00:59:12.530Z,16.70
2022-09-06T01:01:41.802Z,16.66
2022-09-06T01:04:10.645Z,16.60
2022-09-06T01:07:14.841Z,16.56
2022-09-06T01:10:07.489Z,16.50
2022-09-06T01:12:51.025Z,16.50
2022-09-06T01:15:39.816Z,16.40
2022-09-06T01:18:48.815Z,16.40
2022-09-06T01:21:35.831Z,16.30
2022-09-06T01:24:21.107Z,16.30
2022-09-06T01:27:16.624Z,16.20
2022-09-06T01:29:48.587Z,16.20
2022-09-06T01:33:00.077Z,16.10
2022-09-06T01:35:53.753Z,16.10
2022-09-06T01:38:22.748Z,16.10
2022-09-06T01:40:51.534Z,16.00
2022-09-06T01:43:30.494Z,16.00
2022-09-06T01:46:26.019Z,16.00
2022-09-06T01:49:44.124Z,15.90
2022-09-06T01:53:04.932Z,15.90
2022-09-06T01:55:49.696Z,15.80
2022-09-06T01:59:10.403Z,15.80
2022-09-06T02:02:05.736Z,15.80
2022-09-06T02:04:45.460Z,15.80
2022-09-06T02:07:21.963Z,15.74
2022-09-06T02:10:00.960Z,15.70
2022-09-06T02:12:33.229Z,15.70
2022-09-06T02:15:16.560Z,15.66
2022-09-06T02:17:54.944Z,15.60
2022-09-06T02:20:29.643Z,15.60
2022-09-06T02:23:05.050Z,15.60
2022-09-06T02:25:42.069Z,15.50
2022-09-06T02:28:12.097Z,15.50
2022-09-06T02:30:51.442Z,15.50
2022-09-06T02:33:25.087Z,15.50
2022-09-06T02:35:55.484Z,15.50
2022-09-06T02:38:27.587Z,15.50
2022-09-06T02:40:56.971Z,15.50
2022-09-06T02:43:25.571Z,15.42
2022-09-06T02:45:54.402Z,15.40
2022-09-06T02:48:22.976Z,15.40
2022-09-06T02:50:52.554Z,15.50
2022-09-06T02:53:21.443Z,15.50
2022-09-06T02:55:50.436Z,15.50
2022-09-06T02:58:19.123Z,15.50
2022-09-06T03:00:48.346Z,15.50
2022-09-06T03:03:17.110Z,15.40
2022-09-06T03:05:51.297Z,15.42
2022-09-06T03:08:23.565Z,15.40
2022-09-06T03:10:56.365Z,15.40
2022-09-06T03:13:26.077Z,15.40
2022-09-06T03:15:57.817Z,15.40
2022-09-06T03:18:29.944Z,15.40
2022-09-06T03:20:59.743Z,15.40
2022-09-06T03:23:30.270Z,15.40
2022-09-06T03:25:59.049Z,15.40
2022-09-06T03:28:28.252Z,15.40
2022-09-06T03:30:57.722Z,15.40
2022-09-06T03:33:26.502Z,15.38
2022-09-06T03:35:59.594Z,15.40
2022-09-06T03:38:30.049Z,15.30
2022-09-06T03:40:58.751Z,15.30
2022-09-06T03:43:28.343Z,15.30
2022-09-06T03:45:58.129Z,15.26
2022-09-06T03:48:30.192Z,15.20
2022-09-06T03:50:59.542Z,15.20
2022-09-06T03:53:29.862Z,15.14
2022-09-06T03:55:59.192Z,15.10
2022-09-06T03:58:32.625Z,15.10
2022-09-06T04:01:11.403Z,15.10
2022-09-06T04:03:40.650Z,15.10
2022-09-06T04:06:09.799Z,15.10
2022-09-06T04:08:39.007Z,15.10
2022-09-06T04:11:07.979Z,15.00
2022-09-06T04:13:37.886Z,15.00
2022-09-06T04:16:07.498Z,15.00
2022-09-06T04:18:36.598Z,15.00
2022-09-06T04:21:06.000Z,15.00
2022-09-06T04:23:39.686Z,15.00
2022-09-06T04:26:08.800Z,15.00
2022-09-06T04:28:37.489Z,15.00
2022-09-06T04:31:06.342Z,14.98
2022-09-06T04:33:38.407Z,14.90
2022-09-06T04:36:11.539Z,14.90
2022-09-06T04:38:43.765Z,14.90
2022-09-06T04:41:15.940Z,14.90
2022-09-06T04:43:44.664Z,14.90
2022-09-06T04:46:19.161Z,14.90
2022-09-06T04:48:49.824Z,14.90
2022-09-06T04:51:19.672Z,14.90
2022-09-06T04:53:48.925Z,14.94
2022-09-06T04:56:22.122Z,15.00
2022-09-06T04:58:51.938Z,15.10
2022-09-06T05:01:21.217Z,15.20
2022-09-06T05:03:52.171Z,15.20
2022-09-06T05:06:25.565Z,15.22
2022-09-06T05:08:54.262Z,15.30
2022-09-06T05:11:23.358Z,15.40
2022-09-06T05:13:51.942Z,15.50
2022-09-06T05:16:20.586Z,15.50
2022-09-06T05:18:49.525Z,15.50
2022-09-06T05:21:18.312Z,15.60
2022-09-06T05:23:47.099Z,15.60
2022-09-06T05:26:15.702Z,15.60
2022-09-06T05:28:44.474Z,15.60
2022-09-06T05:31:25.986Z,15.60
2022-09-06T05:33:55.775Z,15.60
2022-09-06T05:36:30.413Z,15.54
2022-09-06T05:39:00.519Z,15.58
2022-09-06T05:41:29.206Z,15.60
2022-09-06T05:43:57.896Z,15.60
2022-09-06T05:46:26.990Z,15.70
2022-09-06T05:49:08.169Z,15.74
2022-09-06T05:51:36.857Z,16.00
2022-09-06T05:54:05.646Z,16.10
2022-09-06T05:56:34.613Z,16.10
2022-09-06T05:59:03.187Z,16.10
2022-09-06T06:01:32.001Z,16.18
2022-09-06T06:04:08.174Z,16.46
2022-09-06T06:06:36.759Z,17.00
2022-09-06T06:09:05.856Z,17.48
2022-09-06T06:11:34.747Z,17.96
2022-09-06T06:14:04.843Z,18.40
2022-09-06T06:16:33.797Z,18.66
2022-09-06T06:19:02.654Z,18.82
2022-09-06T06:21:33.619Z,19.02
2022-09-06T06:24:05.412Z,19.58
2022-09-06T06:26:36.709Z,19.38
2022-09-06T06:29:09.724Z,18.92
2022-09-06T06:31:39.760Z,18.50
2022-09-06T06:34:09.526Z,18.24
2022-09-06T06:36:38.518Z,18.08
2022-09-06T06:39:09.399Z,18.00
2022-09-06T06:41:38.241Z,18.00
2022-09-06T06:44:10.616Z,18.00
2022-09-06T06:46:39.813Z,18.08
2022-09-06T06:49:08.463Z,18.10
2022-09-06T06:51:38.210Z,18.00
2022-09-06T06:54:06.853Z,18.10
2022-09-06T06:56:38.958Z,18.42
2022-09-06T06:59:08.369Z,19.34
2022-09-06T07:01:38.092Z,19.96
2022-09-06T07:04:09.012Z,19.84
2022-09-06T07:12:31.708Z,22.44
2022-09-06T07:15:00.303Z,23.24
2022-09-06T07:17:29.292Z,23.60
2022-09-06T07:20:13.653Z,24.04
2022-09-06T07:22:43.662Z,24.56
2022-09-06T07:25:16.530Z,24.98
2022-09-06T07:27:50.120Z,25.00
2022-09-06T07:30:20.372Z,25.30
2022-09-06T07:32:49.261Z,25.64
2022-09-06T07:35:18.049Z,26.08
2022-09-06T07:37:58.410Z,25.90
2022-09-06T07:40:30.680Z,25.70
2022-09-06T07:43:00.492Z,25.80
2022-09-06T07:45:29.181Z,26.10
2022-09-06T07:47:59.995Z,26.20
2022-09-06T07:50:48.015Z,25.92
2022-09-06T07:53:27.751Z,26.00
2022-09-06T07:56:03.378Z,25.76
2022-09-06T07:58:32.430Z,25.46
2022-09-06T08:01:36.670Z,25.48
2022-09-06T08:04:13.020Z,26.00
2022-09-06T08:09:37.443Z,25.80
2022-09-06T08:12:07.650Z,25.40
2022-09-06T08:14:36.682Z,24.90
2022-09-06T08:17:05.448Z,24.70
2022-09-06T08:19:34.956Z,24.50
2022-09-06T08:22:03.949Z,24.20
2022-09-06T08:24:36.014Z,23.80
2022-09-06T08:27:08.081Z,23.36
2022-09-06T08:29:36.870Z,23.08
2022-09-06T08:32:05.558Z,22.70
2022-09-06T08:34:34.140Z,22.66
2022-09-06T08:37:02.725Z,22.60
2022-09-06T08:39:31.467Z,22.60
2022-09-06T08:42:08.462Z,22.50
2022-09-06T08:45:01.021Z,22.40
2022-09-06T08:47:29.689Z,22.40
2022-09-06T08:50:05.800Z,22.54
2022-09-06T08:53:18.308Z,22.70
2022-09-06T08:55:59.893Z,22.70
2022-09-06T08:59:06.980Z,22.88
2022-09-06T09:02:10.744Z,23.00
2022-09-06T09:05:06.697Z,23.20
2022-09-06T09:07:49.636Z,23.50
2022-09-06T09:10:45.869Z,23.70
2022-09-06T09:13:25.828Z,23.60
2022-09-06T09:15:54.447Z,23.52
2022-09-06T09:18:30.232Z,23.86
2022-09-06T09:20:59.766Z,24.70
2022-09-06T09:23:31.319Z,25.00
2022-09-06T09:26:06.246Z,25.40
2022-09-06T09:28:36.042Z,25.60
2022-09-06T09:31:07.156Z,25.40
2022-09-06T09:33:41.295Z,25.30
2022-09-06T09:36:14.618Z,25.30
2022-09-06T09:38:46.079Z,25.68
2022-09-06T09:41:32.483Z,26.14
2022-09-06T09:44:05.250Z,26.10
2022-09-06T09:46:37.106Z,25.84
2022-09-06T09:49:13.487Z,25.60
2022-09-06T09:52:04.089Z,25.28
2022-09-06T09:54:37.948Z,25.10
2022-09-06T09:57:14.161Z,25.22
2022-09-06T09:59:46.500Z,25.00
2022-09-06T10:02:36.111Z,24.60
2022-09-06T10:05:20.464Z,24.26
2022-09-06T10:07:56.478Z,24.00
2022-09-06T10:10:43.127Z,23.80
2022-09-06T10:13:31.686Z,23.60
2022-09-06T10:16:03.676Z,23.48
2022-09-06T10:18:44.708Z,23.30
2022-09-06T10:21:16.393Z,23.26
2022-09-06T10:27:05.055Z,23.20
2022-09-06T10:29:48.271Z,23.00
2022-09-06T10:32:42.983Z,22.84
2022-09-06T10:35:28.459Z,22.70
2022-09-06T10:38:56.896Z,22.70
2022-09-06T10:42:09.871Z,22.60
2022-09-06T10:45:07.544Z,22.70
2022-09-06T10:48:14.431Z,22.70
2022-09-06T10:50:47.715Z,22.70
2022-09-06T10:53:22.546Z,22.72
2022-09-06T10:56:07.616Z,22.76
2022-09-06T11:05:54.802Z,22.90
2022-09-06T11:11:27.186Z,23.48
2022-09-06T11:13:56.175Z,23.88
2022-09-06T11:16:42.476Z,24.04
2022-09-06T11:19:21.791Z,24.36
2022-09-06T11:22:03.815Z,24.50
2022-09-06T11:24:47.448Z,24.50
2022-09-06T11:27:39.483Z,24.50
2022-09-06T11:30:16.121Z,24.32
2022-09-06T11:33:02.969Z,24.32
2022-09-06T11:35:33.883Z,24.10
2022-09-06T11:38:26.862Z,23.90
2022-09-06T11:41:03.089Z,23.72
2022-09-06T11:43:51.934Z,23.70
2022-09-06T11:46:36.133Z,23.70
2022-09-06T11:49:08.128Z,23.78
2022-09-06T11:51:45.422Z,23.80
2022-09-06T11:54:22.166Z,23.90
2022-09-06T11:57:15.636Z,24.00
2022-09-06T11:59:48.110Z,23.90
2022-09-06T12:02:41.782Z,23.82
2022-09-06T12:05:15.552Z,23.80
2022-09-06T12:08:22.267Z,23.70
2022-09-06T12:11:06.729Z,23.60
2022-09-06T12:13:47.789Z,23.46
2022-09-06T12:16:18.495Z,23.40
2022-09-06T12:18:47.053Z,23.38
2022-09-06T12:21:42.740Z,23.34
2022-09-06T12:24:39.751Z,23.30
2022-09-06T12:27:22.923Z,23.30
2022-09-06T12:30:09.319Z,23.18
2022-09-06T12:32:42.101Z,23.12
2022-09-06T12:38:18.902Z,23.10
2022-09-06T12:40:52.702Z,23.14
2022-09-06T12:43:21.398Z,23.20
2022-09-06T12:45:52.800Z,23.20
2022-09-06T12:48:33.702Z,23.28
2022-09-06T12:51:13.975Z,23.30
2022-09-06T12:53:52.652Z,23.28
2022-09-06T12:56:24.239Z,23.36
2022-09-06T12:58:53.585Z,23.50
2022-09-06T13:01:35.107Z,23.56
2022-09-06T13:04:43.616Z,23.60
2022-09-06T13:07:17.932Z,23.70
2022-09-06T13:09:49.757Z,23.70
2022-09-06T13:12:32.466Z,23.70
2022-09-06T13:15:26.641Z,23.60
2022-09-06T13:18:22.778Z,23.60
2022-09-06T13:21:14.500Z,23.62
2022-09-06T13:23:47.875Z,23.80
2022-09-06T13:26:36.245Z,23.82
2022-09-06T13:29:17.119Z,23.98
2022-09-06T13:31:47.941Z,23.90
2022-09-06T13:34:33.542Z,23.80
2022-09-06T13:37:09.520Z,23.60
2022-09-06T13:39:46.613Z,23.40
2022-09-06T13:42:38.763Z,23.30
2022-09-06T13:45:36.754Z,23.30
2022-09-06T13:48:26.300Z,23.30
2022-09-06T13:50:54.952Z,23.30
2022-09-06T13:53:23.640Z,23.50
2022-09-06T13:55:53.246Z,23.60
2022-09-06T13:58:21.935Z,23.80
2022-09-06T14:00:51.134Z,23.80
2022-09-06T14:03:27.294Z,23.80
2022-09-06T14:05:56.191Z,23.76
2022-09-06T14:08:24.813Z,23.70
2022-09-06T14:10:53.969Z,23.70
2022-09-06T14:13:22.968Z,23.70
2022-09-06T14:15:51.982Z,23.70
2022-09-06T14:18:20.543Z,23.72
2022-09-06T14:20:58.342Z,23.70
2022-09-06T14:23:29.676Z,23.60
2022-09-06T14:26:00.948Z,23.60
2022-09-06T14:28:33.093Z,23.50
2022-09-06T14:31:17.597Z,23.40
2022-09-06T14:33:46.250Z,23.40
2022-09-06T14:36:19.832Z,23.30
2022-09-06T14:38:49.967Z,23.30
2022-09-06T14:41:20.442Z,23.30
2022-09-06T14:43:53.181Z,23.30
2022-09-06T14:46:24.458Z,23.30
2022-09-06T14:49:08.636Z,23.30
2022-09-06T14:51:38.904Z,23.40
2022-09-06T14:54:12.052Z,23.40
2022-09-06T14:56:42.353Z,23.40
2022-09-06T14:59:12.137Z,23.40
2022-09-06T15:01:41.533Z,23.40
2022-09-06T15:04:11.974Z,23.30
2022-09-06T15:06:45.162Z,23.30
2022-09-06T15:09:18.689Z,23.30
2022-09-06T15:11:52.013Z,23.20
2022-09-06T15:14:22.867Z,23.10
2022-09-06T15:16:56.515Z,23.10
2022-09-06T15:19:28.088Z,22.98
2022-09-06T15:21:58.041Z,22.90
2022-09-06T15:24:26.661Z,22.80
2022-09-06T15:26:55.751Z,22.70
2022-09-06T15:29:24.848Z,22.60
2022-09-06T15:31:54.760Z,22.68
2022-09-06T15:34:26.497Z,22.70
2022-09-06T15:36:55.206Z,22.70
2022-09-06T15:39:23.998Z,22.70
2022-09-06T15:41:52.784Z,22.60
2022-09-06T15:44:21.960Z,22.60
2022-09-06T15:47:00.018Z,22.54
2022-09-06T15:49:32.133Z,22.50
2022-09-06T15:52:03.346Z,22.50
2022-09-06T15:54:50.832Z,22.50
2022-09-06T15:57:19.617Z,22.50
2022-09-06T15:59:48.407Z,22.50
2022-09-06T16:02:17.361Z,22.42
2022-09-06T16:04:46.807Z,22.40
2022-09-06T16:07:15.608Z,22.40
2022-09-06T16:09:44.281Z,22.40
2022-09-06T16:12:12.823Z,22.30
2022-09-06T16:14:41.463Z,22.30
2022-09-06T16:17:10.380Z,22.20
2022-09-06T16:19:40.256Z,22.10
2022-09-06T16:22:08.843Z,22.10
2022-09-06T16:24:37.427Z,22.10
2022-09-06T16:27:06.113Z,22.00
2022-09-06T16:29:34.697Z,22.00
2022-09-06T16:32:03.997Z,22.00
2022-09-06T16:34:32.583Z,22.00
2022-09-06T16:37:04.521Z,22.00
2022-09-06T16:39:33.171Z,21.90
2022-09-06T16:42:01.918Z,21.90
2022-09-06T16:44:31.528Z,21.80
2022-09-06T16:47:04.313Z,21.80
2022-09-06T16:49:33.201Z,21.80
2022-09-06T16:52:01.892Z,21.80
2022-09-06T16:54:30.587Z,21.70
2022-09-06T16:56:59.161Z,21.70
2022-09-06T16:59:27.951Z,21.70
2022-09-06T17:01:56.580Z,21.60
2022-09-06T17:04:25.323Z,21.60
2022-09-06T17:06:54.112Z,21.60
2022-09-06T17:09:22.700Z,21.54
2022-09-06T17:11:51.486Z,21.50
2022-09-06T17:14:20.173Z,21.50
2022-09-06T17:17:07.634Z,21.42
2022-09-06T17:19:41.709Z,21.40
2022-09-06T17:22:12.949Z,21.40
2022-09-06T17:24:42.982Z,21.32
2022-09-06T17:27:11.665Z,21.40
2022-09-06T17:29:40.375Z,21.32
2022-09-06T17:32:10.681Z,21.30
2022-09-06T17:34:40.726Z,21.30
2022-09-06T17:37:09.484Z,21.22
2022-09-06T17:39:38.904Z,21.20
2022-09-06T17:42:07.881Z,21.16
2022-09-06T17:44:36.572Z,21.10
2022-09-06T17:47:13.958Z,21.10
2022-09-06T17:49:43.641Z,21.04
2022-09-06T17:52:12.873Z,21.00
2022-09-06T17:54:41.661Z,20.98
2022-09-06T17:57:10.345Z,20.90
2022-09-06T17:59:39.783Z,20.90
2022-09-06T18:02:09.262Z,20.90
2022-09-06T18:04:38.210Z,20.80
2022-09-06T18:07:07.242Z,20.80
2022-09-06T18:09:37.354Z,20.70
2022-09-06T18:12:07.196Z,20.70
2022-09-06T18:14:36.067Z,20.70
2022-09-06T18:17:04.857Z,20.64
2022-09-06T18:19:33.442Z,20.60
2022-09-06T18:22:02.230Z,20.50
2022-09-06T18:24:31.428Z,20.50
2022-09-06T18:27:00.321Z,20.50
2022-09-06T18:29:28.905Z,20.40
2022-09-06T18:31:57.818Z,20.40
2022-09-06T18:34:26.486Z,20.40
2022-09-06T18:36:55.068Z,20.30
2022-09-06T18:39:23.857Z,20.30
2022-09-06T18:42:02.375Z,20.30
2022-09-06T18:44:34.601Z,20.26
2022-09-06T18:47:08.787Z,20.20
2022-09-06T18:49:41.794Z,20.20
2022-09-06T18:52:12.583Z,20.20
2022-09-06T18:54:41.475Z,20.20
2022-09-06T18:57:10.264Z,20.20
2022-09-06T18:59:38.849Z,20.10
2022-09-06T19:02:07.685Z,20.10
2022-09-06T19:04:36.740Z,20.10
2022-09-06T19:07:05.833Z,20.10
2022-09-06T19:09:34.620Z,20.10
2022-09-06T19:12:05.110Z,20.10
2022-09-06T19:14:34.043Z,20.00
2022-09-06T19:17:03.141Z,19.90
2022-09-06T19:19:31.958Z,19.90
2022-09-06T19:22:00.513Z,19.90
2022-09-06T19:24:29.198Z,19.90
2022-09-06T19:26:59.673Z,19.80
2022-09-06T19:29:28.931Z,19.80
2022-09-06T19:31:57.660Z,19.80
2022-09-06T19:34:26.303Z,19.78
2022-09-06T19:36:55.558Z,19.70
2022-09-06T19:39:32.190Z,19.60
2022-09-06T19:42:02.501Z,19.60
2022-09-06T19:44:31.190Z,19.50
2022-09-06T19:47:00.614Z,19.50
2022-09-06T19:49:31.122Z,19.40
2022-09-06T19:51:59.808Z,19.30
2022-09-06T19:54:28.501Z,19.30
2022-09-06T19:56:57.078Z,19.20
2022-09-06T19:59:25.969Z,19.18
2022-09-06T20:01:54.699Z,19.10
2022-09-06T20:04:23.927Z,19.00
2022-09-06T20:06:52.541Z,19.00
2022-09-06T20:09:21.535Z,18.90
2022-09-06T20:11:50.225Z,18.90
2022-09-06T20:14:19.318Z,18.90
2022-09-06T20:16:47.922Z,18.90
2022-09-06T20:19:16.692Z,18.80
2022-09-06T20:21:45.592Z,18.80
2022-09-06T20:24:14.381Z,18.80
2022-09-06T20:26:43.160Z,18.76
2022-09-06T20:29:11.857Z,18.70
2022-09-06T20:31:40.575Z,18.70
2022-09-06T20:34:10.900Z,18.60
2022-09-06T20:36:39.554Z,18.60
2022-09-06T20:39:08.238Z,18.60
2022-09-06T20:41:37.847Z,18.56
2022-09-06T20:44:06.944Z,18.54
2022-09-06T20:46:37.426Z,18.50
2022-09-06T20:49:08.001Z,18.50
2022-09-06T20:51:38.743Z,18.50
2022-09-06T20:54:07.634Z,18.44
2022-09-06T20:56:39.670Z,18.40
2022-09-06T20:59:11.606Z,18.40
2022-09-06T21:01:44.126Z,18.40
2022-09-06T21:04:17.327Z,18.40
2022-09-06T21:06:51.240Z,18.36
2022-09-06T21:09:19.923Z,18.30
2022-09-06T21:11:48.608Z,18.34
2022-09-06T21:14:17.294Z,18.30
2022-09-06T21:16:46.164Z,18.30
2022-09-06T21:19:14.935Z,18.30
2022-09-06T21:21:43.932Z,18.26
2022-09-06T21:24:12.991Z,18.20
2022-09-06T21:26:45.233Z,18.20
2022-09-06T21:29:14.227Z,18.20
2022-09-06T21:31:43.225Z,18.20
2022-09-06T21:34:16.852Z,18.16
2022-09-06T21:36:46.536Z,18.18
2022-09-06T21:39:15.513Z,18.20
2022-09-06T21:41:44.831Z,18.18
2022-09-06T21:44:14.112Z,18.20
2022-09-06T21:46:43.224Z,18.20
2022-09-06T21:49:14.150Z,18.18
2022-09-06T21:51:43.425Z,18.10
2022-09-06T21:54:12.154Z,18.10
2022-09-06T21:56:41.569Z,18.10
2022-09-06T21:59:11.254Z,18.10
2022-09-06T22:01:44.879Z,18.10
2022-09-06T22:04:14.447Z,18.10
2022-09-06T22:06:43.169Z,18.10
2022-09-06T22:09:13.160Z,18.10
2022-09-06T22:11:44.212Z,18.10
2022-09-06T22:14:15.332Z,18.00
2022-09-06T22:16:44.508Z,18.00
2022-09-06T22:19:13.897Z,18.00
2022-09-06T22:21:42.865Z,18.00
2022-09-06T22:24:13.244Z,17.92
2022-09-06T22:26:42.982Z,17.90
2022-09-06T22:29:14.335Z,17.90
2022-09-06T22:31:43.516Z,17.80
2022-09-06T22:34:12.675Z,17.80
2022-09-06T22:36:42.875Z,17.80
2022-09-06T22:39:11.662Z,17.70
2022-09-06T22:41:41.181Z,17.70
2022-09-06T22:44:10.433Z,17.70
2022-09-06T22:46:39.723Z,17.60
2022-09-06T22:49:09.013Z,17.60
2022-09-06T22:51:37.870Z,17.60
2022-09-06T22:54:06.650Z,17.60
2022-09-06T22:56:36.058Z,17.56
2022-09-06T22:59:05.664Z,17.52
2022-09-06T23:01:39.472Z,17.50
2022-09-06T23:04:09.967Z,17.50
2022-09-06T23:06:38.991Z,17.48
2022-09-06T23:09:07.764Z,17.44
2022-09-06T23:11:36.469Z,17.40
2022-09-06T23:14:05.254Z,17.40
2022-09-06T23:16:34.128Z,17.40
2022-09-06T23:19:03.045Z,17.40
2022-09-06T23:21:32.955Z,17.40
2022-09-06T23:24:01.727Z,17.40
2022-09-06T23:26:32.883Z,17.40
2022-09-06T23:29:01.985Z,17.40
2022-09-06T23:31:32.803Z,17.40
2022-09-06T23:34:02.659Z,17.40
2022-09-06T23:36:32.406Z,17.40
2022-09-06T23:39:02.579Z,17.44
2022-09-06T23:41:31.364Z,17.50
2022-09-06T23:44:00.864Z,17.50
2022-09-06T23:46:31.285Z,17.50
2022-09-06T23:48:59.979Z,17.50
2022-09-06T23:51:28.770Z,17.50
2022-09-06T23:53:58.563Z,17.50
2022-09-06T23:56:27.268Z,17.50
2022-09-06T23:58:55.858Z,17.50
